createdAt,value
2022-11-01T00:13:17.816Z,31.30
2022-11-01T00:28:19.758Z,31.48
2022-11-01T00:43:22.020Z,29.15
2022-11-01T00:58:23.877Z,32.13
2022-11-01T01:13:25.810Z,36.85
2022-11-01T01:28:27.761Z,38.63
2022-11-01T01:43:41.981Z,40.20
2022-11-01T01:58:52.393Z,37.17
2022-11-01T02:13:54.622Z,41.15
2022-11-01T02:29:05.994Z,29.17
2022-11-01T02:44:32.057Z,53.17
2022-11-01T02:59:44.325Z,30.25
2022-11-01T03:15:21.266Z,32.08
2022-11-01T03:30:23.475Z,42.67
2022-11-01T03:45:27.235Z,49.00
2022-11-01T04:00:32.357Z,53.22
2022-11-01T04:15:52.626Z,52.60
2022-11-01T04:30:54.952Z,55.15
2022-11-01T04:45:57.325Z,40.88
2022-11-01T05:00:59.268Z,57.30
2022-11-01T05:16:20.971Z,49.42
2022-11-01T05:31:23.486Z,57.22
2022-11-01T05:46:25.412Z,44.17
2022-11-01T06:01:27.385Z,44.42
2022-11-01T06:16:29.367Z,50.15
2022-11-01T06:31:31.798Z,48.90
2022-11-01T06:46:34.334Z,43.45
2022-11-01T07:01:36.411Z,48.20
2022-11-01T07:16:39.090Z,43.92
2022-11-01T07:31:41.876Z,47.50
2022-11-01T07:46:43.810Z,52.03
2022-11-01T08:01:45.761Z,43.13
2022-11-01T08:16:56.165Z,48.50
2022-11-01T08:31:59.283Z,34.35
2022-11-01T08:47:01.859Z,36.40
2022-11-01T09:02:03.934Z,32.70
2022-11-01T09:17:05.955Z,27.80
2022-11-01T09:32:07.889Z,27.40
2022-11-01T09:47:30.550Z,22.10
2022-11-01T10:03:14.895Z,21.67
2022-11-01T10:18:28.843Z,21.35
2022-11-01T10:33:46.688Z,18.30
2022-11-01T10:48:57.219Z,14.50
2022-11-01T11:04:03.171Z,15.80
2022-11-01T11:19:08.071Z,10.95
2022-11-01T11:34:20.773Z,6.63
2022-11-01T11:49:27.430Z,8.38
2022-11-01T12:04:47.438Z,7.38
2022-11-01T12:19:49.463Z,8.52
2022-11-01T12:34:53.967Z,12.27
2022-11-01T12:50:07.657Z,11.00
2022-11-01T13:05:15.710Z,9.70
2022-11-01T13:20:43.050Z,6.83
2022-11-01T13:35:56.427Z,6.90
2022-11-01T13:51:22.748Z,6.53
2022-11-01T14:21:42.381Z,8.88
2022-11-01T14:36:45.422Z,7.13
2022-11-01T14:52:10.230Z,7.05
2022-11-01T15:07:32.884Z,6.07
2022-11-01T15:22:34.848Z,8.07
2022-11-01T15:37:37.491Z,7.38
2022-11-01T15:52:39.699Z,14.40
2022-11-01T16:07:41.738Z,18.10
2022-11-01T16:22:46.695Z,10.85
2022-11-01T16:37:48.586Z,12.52
2022-11-01T16:52:50.433Z,10.00
2022-11-01T17:07:52.517Z,12.48
2022-11-01T17:22:55.771Z,14.82
2022-11-01T17:37:57.720Z,12.23
2022-11-01T17:52:59.708Z,12.02
2022-11-01T18:08:12.767Z,13.75
2022-11-01T18:23:18.587Z,13.48
2022-11-01T18:38:35.456Z,21.42
2022-11-01T18:53:37.633Z,16.10
2022-11-01T19:08:39.901Z,16.27
2022-11-01T19:23:54.933Z,28.15
2022-11-01T19:38:57.096Z,29.00
2022-11-01T19:54:00.503Z,25.10
2022-11-01T20:09:19.464Z,24.02
2022-11-01T20:24:21.600Z,23.88
2022-11-01T20:39:25.500Z,21.50
2022-11-01T20:54:27.394Z,25.30
2022-11-01T21:09:42.371Z,27.80
2022-11-01T21:24:46.852Z,23.73
2022-11-01T21:40:05.709Z,23.50
2022-11-01T21:55:09.592Z,20.42
2022-11-01T22:10:11.499Z,22.17
2022-11-01T22:25:13.460Z,23.98
2022-11-01T22:40:16.714Z,24.38
2022-11-01T22:55:25.130Z,20.75
2022-11-01T23:10:32.922Z,26.13
2022-11-01T23:25:34.773Z,21.20
2022-11-01T23:40:36.676Z,19.88
2022-11-01T23:55:41.703Z,21.25
